This demonstration page uses our WeatherBlox Daily Observations layout. Learn more.

41.55636, -103.73856

Hourly Observations for October 5, 2019

Temp ( °F °C ) Dew Point ( °F °C ) Humidity (%) Winds ( mph kmh ) Pressure ( in mb ) Visibility ( mi km ) Precip ( " mm )
12:58 am 00:58 Cloudy 54 12.4 52 11.3 93 93 S 14 22 29.73 1007 8 12.87472 0 0
1:58 am 01:58 Mostly Cloudy with Nearby Thunderstorms 55 12.9 52 11.3 90 90 NW 20 31 29.78 1009 10 16.0934 0 0
2:58 am 02:58 Mostly Cloudy with Light Showers 56 13.5 52 11 85 85 N 8 13 29.8 1009 10 16.0934 0.06 1.524
3:58 am 03:58 Mostly Cloudy 54 12.3 51 10.8 91 91 WNW 15 24 29.87 1011 10 16.0934 0 0
4:58 am 04:58 Mostly Clear 51 10.5 49 9.5 94 94 WNW 10 17 29.9 1013 7 11.26538 0 0
6:58 am 06:58 Clear 49 9.4 22 -5.3 35 35 WNW 22 35 29.94 1014 10 16.0934 0 0
7:58 am 07:58 Clear 48 9.1 20 -6.8 32 32 WNW 32 52 29.92 1013 10 16.0934 0 0
8:58 am 08:58 Clear 46 7.9 19 -7 34 34 WNW 23 37 29.96 1015 10 16.0934 0 0
9:58 am 09:58 Clear 44 6.9 22 -5.5 41 41 NW 21 33 29.95 1014 10 16.0934 0 0
10:58 am 10:58 Clear 45 7.1 22 -5.5 41 41 WNW 25 41 30.02 1017 10 16.0934 0 0
11:58 am 11:58 Clear 43 6 23 -4.9 46 46 W 15 24 30.07 1018 10 16.0934 0 0
12:58 pm 12:58 Sunny 42 5.7 24 -4.6 48 48 WNW 20 31 30.11 1020 10 16.0934 0 0
1:58 pm 13:58 Sunny 43 6.3 24 -4.3 47 47 WNW 18 30 30.12 1020 10 16.0934 0 0
3:58 pm 15:58 Sunny 50 10 24 -4.5 36 36 NW 22 35 30.14 1021 10 16.0934 0 0
4:58 pm 16:58 Sunny 53 11.4 25 -4.1 34 34 WNW 21 33 30.13 1020 10 16.0934 0 0
5:58 pm 17:58 Sunny 54 12.1 26 -3.3 34 34 NNW 15 24 30.14 1021 10 16.0934 0 0
6:58 pm 18:58 Sunny 55 12.9 26 -3.2 33 33 NNW 15 24 30.1 1019 10 16.0934 0 0
7:58 pm 19:58 Mostly Sunny 58 14.4 22 -5.5 25 25 WNW 21 33 30.07 1018 10 16.0934 0 0
8:58 pm 20:58 Sunny 60 15.5 18 -7.7 20 20 NNW 25 41 30.01 1016 10 16.0934 0 0
9:58 pm 21:58 Sunny 60 15.8 17 -8.6 18 18 NNW 24 39 30 1016 10 16.0934 0 0
10:58 pm 22:58 Sunny 60 15.6 18 -7.9 19 19 N 17 28 29.98 1015 10 16.0934 0 0
11:58 pm 23:58 Sunny 56 13.6 20 -6.6 24 24 NE 9 15 30.01 1016 10 16.0934 0 0

Powered by AerisWeather